Time;durP1;ratioP1;P1;durP2;ratioP2;P2;SDS_P1;SDS_P2;PMS_P1;PMS_P2;Temp;Humidity;BMP_temperature;BMP_pressure;BME280_temperature;BME280_humidity;BME280_pressure;Samples;Min_cycle;Max_cycle;Signal;HPM_P1;HPM_P2
2023/02/23 00:02:08;;;;;;;7.28;4.40;;;;;;;17.78;49.18;100247.47;5112313;28;20549;-62
2023/02/23 00:04:37;;;;;;;7.45;4.65;;;;;;;17.79;48.94;100257.25;5112459;28;20042;-62
2023/02/23 00:07:06;;;;;;;7.13;4.40;;;;;;;17.77;48.95;100260.09;5112186;28;20058;-62
2023/02/23 00:09:35;;;;;;;7.75;4.22;;;;;;;17.74;48.91;100261.19;5111669;28;20071;-64
2023/02/23 00:12:07;;;;;;;8.88;4.75;;;;;;;17.73;49.10;100264.03;5112359;28;20047;-64
2023/02/23 00:14:37;;;;;;;8.20;4.70;;;;;;;17.71;49.11;100260.63;5112136;28;20044;-64
2023/02/23 00:17:12;;;;;;;7.95;4.32;;;;;;;17.69;48.96;100258.06;5112195;28;20124;-64
2023/02/23 00:19:42;;;;;;;8.45;4.60;;;;;;;17.67;49.06;100253.78;5112031;28;20055;-64
2023/02/23 00:22:12;;;;;;;7.15;3.92;;;;;;;17.64;49.00;100260.28;5112279;28;20048;-64
2023/02/23 00:24:41;;;;;;;8.25;4.70;;;;;;;17.62;48.94;100267.66;5112063;28;20078;-64
2023/02/23 00:27:16;;;;;;;6.75;3.95;;;;;;;17.60;49.23;100258.00;5112114;28;20067;-62
2023/02/23 00:29:48;;;;;;;8.68;4.60;;;;;;;17.59;49.00;100262.56;5112001;28;20373;-62
2023/02/23 00:32:18;;;;;;;9.50;4.35;;;;;;;17.56;48.92;100260.09;5112076;28;20047;-62
2023/02/23 00:34:48;;;;;;;7.63;4.18;;;;;;;17.51;48.73;100259.69;5112063;28;20048;-62
2023/02/23 00:37:18;;;;;;;6.68;4.18;;;;;;;17.54;48.90;100266.63;5111711;28;20036;-62
2023/02/23 00:39:47;;;;;;;10.15;4.60;;;;;;;17.49;48.77;100264.38;5111805;28;20048;-62
2023/02/23 00:42:15;;;;;;;6.93;4.10;;;;;;;17.49;48.89;100264.38;5111863;28;20040;-62
2023/02/23 00:44:43;;;;;;;9.20;4.38;;;;;;;17.46;48.94;100264.63;5111941;28;20043;-63
2023/02/23 00:47:11;;;;;;;9.18;4.25;;;;;;;17.44;48.59;100263.91;5111886;28;20515;-63
2023/02/23 00:49:39;;;;;;;8.20;4.30;;;;;;;17.44;48.87;100263.91;5111897;28;20100;-63
2023/02/23 00:52:07;;;;;;;7.05;4.00;;;;;;;17.41;48.95;100264.19;5111859;28;20074;-63
2023/02/23 00:54:37;;;;;;;8.18;4.55;;;;;;;17.40;48.83;100267.88;5111945;28;20402;-63
2023/02/23 00:57:05;;;;;;;7.80;4.15;;;;;;;17.38;48.85;100276.09;5112064;28;20055;-62
2023/02/23 00:59:34;;;;;;;7.80;3.90;;;;;;;17.35;48.94;100276.34;5111912;28;20047;-62
2023/02/23 01:02:02;;;;;;;7.68;4.43;;;;;;;17.33;49.06;100270.25;5111584;28;20046;-65
2023/02/23 01:04:31;;;;;;;8.07;4.25;;;;;;;17.34;48.90;100268.41;5111625;28;20048;-63
2023/02/23 01:06:59;;;;;;;6.82;3.85;;;;;;;17.31;48.71;100266.00;5111591;28;20047;-63
2023/02/23 01:09:28;;;;;;;8.32;4.25;;;;;;;17.30;48.86;100270.53;5111756;28;20048;-62
2023/02/23 01:12:00;;;;;;;6.82;4.05;;;;;;;17.28;48.73;100272.50;5111995;28;20075;-64
2023/02/23 01:14:29;;;;;;;8.20;4.45;;;;;;;17.26;48.78;100273.63;5111676;28;20067;-63
2023/02/23 01:16:58;;;;;;;6.20;4.03;;;;;;;17.25;48.77;100271.91;5111671;28;20054;-63
2023/02/23 01:19:27;;;;;;;7.65;3.97;;;;;;;17.22;48.78;100269.50;5111614;28;20043;-63
2023/02/23 01:21:55;;;;;;;7.28;4.43;;;;;;;17.22;48.69;100274.88;5114897;28;20048;-63
2023/02/23 01:24:23;;;;;;;9.48;4.55;;;;;;;17.21;48.85;100275.88;5115405;28;20408;-62
2023/02/23 01:26:52;;;;;;;7.95;3.85;;;;;;;17.16;48.82;100266.34;5115188;28;20040;-63
2023/02/23 01:29:22;;;;;;;7.97;4.20;;;;;;;17.16;48.82;100266.34;5115038;28;20047;-63
2023/02/23 01:31:50;;;;;;;7.28;4.10;;;;;;;17.15;48.78;100270.00;5115061;28;20047;-63
2023/02/23 01:34:21;;;;;;;7.40;3.85;;;;;;;17.13;48.83;100272.00;5114940;27;20043;-63
2023/02/23 01:36:49;;;;;;;7.25;3.70;;;;;;;17.10;48.59;100272.28;5115092;28;20052;-63
2023/02/23 01:39:19;;;;;;;8.15;4.18;;;;;;;17.10;48.87;100266.88;5115221;28;20078;-62
2023/02/23 01:41:50;;;;;;;7.40;3.80;;;;;;;17.09;48.63;100275.97;5114942;28;20043;-63
2023/02/23 01:44:55;;;;;;;8.52;4.15;;;;;;;17.08;48.75;100270.69;5114777;28;20047;-63
2023/02/23 01:47:26;;;;;;;6.60;3.88;;;;;;;17.04;48.80;100267.41;5114831;28;20069;-63
2023/02/23 01:49:56;;;;;;;8.13;3.97;;;;;;;17.01;48.82;100254.22;5114789;28;20054;-64
2023/02/23 01:52:24;;;;;;;8.70;4.10;;;;;;;17.03;48.75;100265.69;5115228;28;20082;-63
2023/02/23 01:54:55;;;;;;;7.15;3.85;;;;;;;16.98;48.73;100251.75;5114620;28;20048;-62
2023/02/23 01:57:25;;;;;;;6.90;3.67;;;;;;;17.02;48.81;100263.16;5114532;28;20055;-62
2023/02/23 01:59:54;;;;;;;7.57;3.92;;;;;;;17.00;48.90;100265.13;5114591;28;20053;-64
2023/02/23 02:02:32;;;;;;;7.80;4.10;;;;;;;16.98;48.84;100262.53;5114490;28;20096;-63
2023/02/23 02:05:03;;;;;;;6.70;3.88;;;;;;;16.94;48.73;100255.72;5114486;28;20069;-63
2023/02/23 02:07:34;;;;;;;7.80;3.72;;;;;;;16.95;48.63;100257.44;5114260;28;20492;-63
2023/02/23 02:13:04;;;;;;;7.00;3.92;;;;;;;16.91;48.73;100247.91;5113958;28;20044;-63
2023/02/23 02:15:37;;;;;;;7.20;4.10;;;;;;;16.90;48.71;100254.28;5114312;28;20114;-63
2023/02/23 02:18:12;;;;;;;;;;;;;;;16.90;48.69;100261.53;5114611;27;20056;-62
2023/02/23 02:21:25;;;;;;;7.90;3.75;;;;;;;16.88;48.72;100261.63;5114460;28;19920;-64
2023/02/23 02:24:32;;;;;;;7.03;3.72;;;;;;;16.85;48.67;100268.13;5108721;28;20096;-62
2023/02/23 02:27:13;;;;;;;6.57;3.58;;;;;;;16.84;48.75;100257.50;5095507;28;20054;-62
2023/02/23 02:30:21;;;;;;;6.00;3.45;;;;;;;16.83;48.78;100253.97;5114382;28;20475;-63
2023/02/23 02:33:31;;;;;;;8.00;3.80;;;;;;;16.79;48.84;100259.72;5074564;28;20064;-64
2023/02/23 02:36:41;;;;;;;5.70;3.38;;;;;;;16.81;48.86;100260.47;5076076;27;20083;-63
2023/02/23 02:39:22;;;;;;;8.77;3.72;;;;;;;16.80;48.67;100258.78;5110574;28;20055;-63
2023/02/23 02:42:09;;;;;;;6.63;3.55;;;;;;;16.78;48.77;100268.78;5113826;28;20051;-63
2023/02/23 02:44:48;;;;;;;6.10;3.38;;;;;;;16.77;48.71;100259.84;5113799;28;20059;-62
2023/02/23 02:47:26;;;;;;;6.10;3.28;;;;;;;16.74;48.71;100260.13;5113589;27;20397;-64
2023/02/23 02:50:03;;;;;;;6.82;3.50;;;;;;;16.74;48.78;100260.13;5113621;28;20047;-64
2023/02/23 02:52:39;;;;;;;5.05;2.95;;;;;;;16.73;48.86;100260.28;5113511;28;20122;-63
2023/02/23 02:55:15;;;;;;;6.95;3.50;;;;;;;16.71;48.80;100257.72;5113379;28;20435;-62
2023/02/23 02:57:46;;;;;;;5.28;3.35;;;;;;;16.69;48.72;100266.88;5113323;28;20065;-63
2023/02/23 04:19:21;;;;;;;7.95;3.78;;;;;;;16.35;48.58;100280.50;5112823;28;20104;-63
2023/02/23 04:21:49;;;;;;;8.43;3.72;;;;;;;16.35;48.61;100288.56;5112318;28;20043;-63
2023/02/23 04:24:18;;;;;;;7.03;3.55;;;;;;;16.35;48.64;100291.25;5112246;28;20074;-62
2023/02/23 04:26:46;;;;;;;6.20;3.75;;;;;;;16.33;48.82;100290.53;5112312;28;20051;-64
2023/02/23 04:29:14;;;;;;;5.45;3.28;;;;;;;16.32;48.57;100294.22;5112292;28;20105;-64
2023/02/23 04:31:42;;;;;;;7.40;3.67;;;;;;;16.32;48.83;100296.91;5111886;28;20044;-64
2023/02/23 04:34:13;;;;;;;6.70;3.58;;;;;;;16.30;48.64;100283.56;5112087;28;20126;-64
2023/02/23 04:36:42;;;;;;;7.10;3.75;;;;;;;16.29;48.45;100294.44;5112172;28;20044;-64
2023/02/23 04:39:10;;;;;;;7.55;3.42;;;;;;;16.29;48.70;100298.00;5112327;28;20097;-64
2023/02/23 04:41:39;;;;;;;7.97;3.65;;;;;;;16.26;48.62;100286.63;5111978;28;20537;-63
2023/02/23 04:44:07;;;;;;;8.40;3.70;;;;;;;16.28;48.66;100295.44;5111921;28;20063;-64
2023/02/23 04:46:35;;;;;;;6.30;3.53;;;;;;;16.22;48.65;100290.59;5112017;28;20849;-64
2023/02/23 04:49:03;;;;;;;6.05;3.70;;;;;;;16.25;48.84;100295.69;5111997;28;20114;-64
2023/02/23 04:51:32;;;;;;;7.88;4.07;;;;;;;16.24;48.59;100299.38;5111911;28;20044;-64
2023/02/23 04:54:02;;;;;;;7.93;4.20;;;;;;;16.23;48.66;100292.28;5111872;28;20130;-64
2023/02/23 04:56:30;;;;;;;6.72;3.80;;;;;;;16.18;48.78;100289.97;5114658;28;20064;-64
2023/02/23 04:59:00;;;;;;;8.73;4.03;;;;;;;16.22;48.67;100295.97;5115632;28;20043;-63
2023/02/23 05:01:28;;;;;;;7.97;4.03;;;;;;;16.20;48.64;100292.53;5115654;28;20050;-63
2023/02/23 05:03:56;;;;;;;6.50;3.80;;;;;;;16.19;48.70;100296.19;5115685;28;20044;-63
2023/02/23 05:06:24;;;;;;;8.38;4.25;;;;;;;16.19;48.68;100293.50;5115579;28;20446;-63
2023/02/23 05:08:52;;;;;;;7.78;4.07;;;;;;;16.18;48.55;100298.03;5115513;28;20054;-63
2023/02/23 05:11:23;;;;;;;6.55;4.13;;;;;;;16.17;48.49;100292.78;5115374;28;20043;-62
2023/02/23 05:13:53;;;;;;;7.35;3.90;;;;;;;16.17;48.77;100292.78;5115296;28;20510;-64
2023/02/23 05:16:21;;;;;;;6.97;4.00;;;;;;;16.15;48.72;100294.75;5115598;27;20043;-64
2023/02/23 05:18:49;;;;;;;6.15;3.92;;;;;;;16.13;48.64;100291.34;5115334;28;20071;-63
2023/02/23 05:21:17;;;;;;;7.35;4.53;;;;;;;16.12;48.62;100295.03;5115261;28;20047;-63
2023/02/23 05:23:47;;;;;;;7.25;3.90;;;;;;;16.12;48.66;100300.41;5115249;28;20054;-63
2023/02/23 05:26:15;;;;;;;7.60;3.85;;;;;;;16.11;48.53;100301.34;5115222;28;20093;-64
2023/02/23 05:28:45;;;;;;;8.73;4.25;;;;;;;16.09;48.59;100295.25;5115222;28;20048;-63
2023/02/23 05:31:13;;;;;;;6.72;3.85;;;;;;;16.08;48.51;100297.09;5115084;28;20096;-63
2023/02/23 05:33:42;;;;;;;7.13;3.72;;;;;;;16.09;48.50;100295.25;5115283;28;20043;-63
2023/02/23 05:36:12;;;;;;;8.15;4.40;;;;;;;16.08;48.46;100299.78;5115053;28;20399;-63
2023/02/23 05:38:41;;;;;;;8.95;3.80;;;;;;;16.09;48.52;100306.00;5114997;28;20047;-63
2023/02/23 05:41:10;;;;;;;5.93;3.72;;;;;;;16.07;48.53;100302.59;5114870;28;20050;-63
2023/02/23 05:43:38;;;;;;;7.32;4.18;;;;;;;16.06;48.44;100300.91;5114808;28;20064;-64
2023/02/23 05:46:09;;;;;;;6.45;3.85;;;;;;;16.05;48.53;100304.56;5114814;28;20561;-64
2023/02/23 05:48:38;;;;;;;6.72;3.67;;;;;;;16.03;48.48;100308.25;5114730;28;20431;-64
2023/02/23 05:51:09;;;;;;;7.90;3.97;;;;;;;16.01;48.62;100304.78;5114711;28;20089;-62
2023/02/23 05:53:37;;;;;;;7.97;3.92;;;;;;;16.02;48.48;100306.53;5114655;28;20048;-62
2023/02/23 05:56:08;;;;;;;7.65;4.10;;;;;;;16.01;48.66;100309.31;5114719;28;20052;-62
2023/02/23 05:58:36;;;;;;;6.13;4.05;;;;;;;15.99;48.62;100311.28;5114689;28;20058;-64
2023/02/23 06:01:05;;;;;;;6.45;4.00;;;;;;;15.97;48.74;100310.56;5114331;28;20071;-63
2023/02/23 06:03:34;;;;;;;6.18;3.88;;;;;;;15.99;48.67;100317.53;5114360;28;20500;-63
2023/02/23 06:06:03;;;;;;;8.88;4.03;;;;;;;15.99;48.56;100317.53;5114229;28;20180;-64
2023/02/23 06:08:31;;;;;;;6.63;4.15;;;;;;;15.98;48.69;100321.19;5113543;28;20043;-63
2023/02/23 06:11:00;;;;;;;8.43;3.97;;;;;;;15.98;48.60;100331.97;5114354;28;20047;-64
2023/02/23 06:13:28;;;;;;;6.50;3.90;;;;;;;15.96;48.46;100333.94;5114499;28;20438;-64
2023/02/23 06:15:56;;;;;;;6.75;4.22;;;;;;;15.94;48.62;100322.44;5114539;28;20438;-63
2023/02/23 06:18:25;;;;;;;8.85;4.10;;;;;;;15.95;48.53;100329.53;5114032;28;20047;-63
2023/02/23 06:20:54;;;;;;;7.97;4.10;;;;;;;15.94;48.63;100333.19;5113995;28;20054;-63
2023/02/23 06:23:22;;;;;;;7.13;3.97;;;;;;;15.94;48.50;100340.41;5114048;28;20048;-62
2023/02/23 06:25:51;;;;;;;6.25;3.90;;;;;;;15.93;48.54;100342.25;5114034;28;20159;-65
2023/02/23 06:28:23;;;;;;;8.57;4.22;;;;;;;15.92;48.64;100345.03;5113893;28;20126;-64
2023/02/23 06:30:51;;;;;;;7.90;4.20;;;;;;;15.92;48.50;100343.25;5113585;28;20052;-63
2023/02/23 06:33:20;;;;;;;6.68;3.80;;;;;;;15.91;48.58;100354.94;5113708;28;20044;-63
2023/02/23 06:35:49;;;;;;;8.02;3.75;;;;;;;15.91;48.49;100354.09;5113636;28;20444;-63
2023/02/23 06:38:19;;;;;;;8.95;4.53;;;;;;;15.90;48.56;100369.38;5113485;27;20058;-64
2023/02/23 06:40:47;;;;;;;6.40;3.67;;;;;;;15.89;48.66;100359.59;5113502;28;20043;-64
2023/02/23 06:43:15;;;;;;;7.07;4.18;;;;;;;15.88;48.57;100359.72;5113595;28;20043;-64
2023/02/23 06:45:44;;;;;;;7.18;3.80;;;;;;;15.88;48.51;100357.91;5113495;28;20407;-63
2023/02/23 06:48:12;;;;;;;7.93;4.03;;;;;;;15.88;48.57;100360.59;5113342;28;20044;-65
2023/02/23 06:50:40;;;;;;;7.97;4.00;;;;;;;15.87;48.58;100360.72;5113393;28;20048;-64
2023/02/23 06:53:08;;;;;;;7.03;4.00;;;;;;;15.86;48.39;100364.38;5113357;28;20047;-64
2023/02/23 06:55:38;;;;;;;8.60;4.25;;;;;;;15.86;48.56;100370.63;5113351;28;20096;-64
2023/02/23 06:58:06;;;;;;;7.07;3.97;;;;;;;15.84;48.56;100361.81;5112954;28;20135;-64
2023/02/23 07:00:35;;;;;;;7.57;4.10;;;;;;;15.85;48.46;100371.59;5112958;28;20058;-63
2023/02/23 07:03:03;;;;;;;7.05;4.10;;;;;;;15.83;48.53;100370.88;5111724;28;20043;-62
2023/02/23 07:05:31;;;;;;;8.52;4.35;;;;;;;15.84;48.50;100371.72;5113158;28;20044;-62
2023/02/23 07:07:59;;;;;;;7.03;3.70;;;;;;;15.83;48.57;100378.94;5113060;28;20054;-63
2023/02/23 07:10:31;;;;;;;7.13;3.47;;;;;;;15.83;48.59;100375.41;5112714;28;20074;-63
2023/02/23 07:13:00;;;;;;;5.72;3.55;;;;;;;15.83;48.58;100376.25;5112817;28;20051;-64
2023/02/23 07:15:29;;;;;;;7.75;4.18;;;;;;;15.83;48.55;100370.03;5114927;28;20047;-64
2023/02/23 07:17:57;;;;;;;7.28;4.18;;;;;;;15.83;48.41;100372.72;5112812;28;20040;-64
2023/02/23 07:20:25;;;;;;;7.35;3.80;;;;;;;15.80;48.42;100371.09;5112946;28;20496;-64
2023/02/23 07:22:54;;;;;;;6.28;3.88;;;;;;;15.80;48.58;100381.00;5112808;28;20094;-65
2023/02/23 07:25:22;;;;;;;6.75;3.78;;;;;;;15.82;48.48;100379.03;5112689;28;20399;-64
2023/02/23 07:27:50;;;;;;;7.47;4.10;;;;;;;15.82;48.59;100381.72;5112695;28;20043;-65
2023/02/23 07:30:23;;;;;;;7.57;4.25;;;;;;;15.81;48.56;100382.72;5112730;28;20039;-64
2023/02/23 07:32:51;;;;;;;7.78;4.13;;;;;;;15.81;48.52;100382.72;5112637;28;20054;-64
2023/02/23 07:35:20;;;;;;;7.55;4.05;;;;;;;15.81;48.40;100382.72;5113003;28;20097;-65
2023/02/23 07:37:48;;;;;;;6.97;4.00;;;;;;;15.79;48.37;100385.53;5112323;28;20051;-64
2023/02/23 07:40:18;;;;;;;7.47;4.05;;;;;;;15.81;48.41;100386.25;5113004;28;20054;-64
2023/02/23 07:42:46;;;;;;;6.95;3.85;;;;;;;15.78;48.44;100377.59;5112460;28;20070;-65
2023/02/23 07:45:16;;;;;;;8.07;4.20;;;;;;;15.78;48.45;100381.13;5112571;28;20514;-66
2023/02/23 07:47:45;;;;;;;8.30;4.53;;;;;;;15.79;48.57;100380.16;5110231;28;20043;-64
2023/02/23 07:50:14;;;;;;;5.85;3.83;;;;;;;15.77;48.50;100379.44;5111152;28;20039;-64
2023/02/23 07:52:43;;;;;;;7.20;4.03;;;;;;;15.79;48.65;100387.38;5110782;28;20051;-65
2023/02/23 07:55:12;;;;;;;6.32;3.63;;;;;;;15.79;48.33;100382.84;5111936;28;20046;-65
2023/02/23 07:57:40;;;;;;;9.05;3.92;;;;;;;15.79;48.49;100377.47;5110986;28;20748;-66
2023/02/23 08:00:10;;;;;;;6.90;4.07;;;;;;;15.79;48.50;100379.28;5112109;28;20051;-66
2023/02/23 08:02:39;;;;;;;6.85;4.07;;;;;;;15.79;48.53;100380.16;5112074;28;20058;-68
2023/02/23 08:05:09;;;;;;;7.85;3.92;;;;;;;15.79;48.48;100385.53;5112115;28;20072;-64
2023/02/23 08:07:37;;;;;;;7.00;3.85;;;;;;;15.79;48.50;100382.84;5112699;28;20062;-64
2023/02/23 08:10:07;;;;;;;8.40;4.47;;;;;;;15.78;48.37;100378.44;5112176;28;20403;-64
2023/02/23 08:12:35;;;;;;;8.63;4.43;;;;;;;15.79;48.49;100385.53;5112175;28;20380;-64
2023/02/23 08:15:07;;;;;;;7.38;4.22;;;;;;;15.79;48.27;100385.53;5111816;28;20078;-64
2023/02/23 08:17:35;;;;;;;8.05;4.20;;;;;;;15.80;48.53;100389.06;5111994;28;20047;-66
2023/02/23 08:20:05;;;;;;;8.20;3.88;;;;;;;15.76;48.47;100385.78;5112082;28;20077;-64
2023/02/23 08:22:35;;;;;;;7.88;4.00;;;;;;;15.79;48.44;100393.59;5112601;28;20100;-65
2023/02/23 08:25:16;;;;;;;7.97;4.22;;;;;;;15.79;48.66;100384.66;5112398;28;20050;-66
2023/02/23 08:27:44;;;;;;;5.82;3.75;;;;;;;15.79;48.43;100388.22;5112364;28;20297;-65
2023/02/23 08:30:14;;;;;;;7.40;3.85;;;;;;;15.80;48.21;100395.31;5113239;28;20115;-64
2023/02/23 08:32:42;;;;;;;6.40;3.80;;;;;;;15.79;48.48;100393.59;5116375;28;20183;-65
2023/02/23 08:35:11;;;;;;;6.18;3.53;;;;;;;15.81;48.45;100398.84;5116050;28;20143;-65
2023/02/23 08:37:41;;;;;;;6.93;4.03;;;;;;;15.81;48.48;100394.31;5116005;28;20051;-64
2023/02/23 08:40:14;;;;;;;8.20;4.05;;;;;;;15.81;48.45;100398.84;5116075;28;20043;-64
2023/02/23 08:42:44;;;;;;;7.88;4.20;;;;;;;15.79;48.41;100396.28;5115882;28;20044;-64
2023/02/23 08:45:12;;;;;;;8.60;4.35;;;;;;;15.80;48.27;100398.00;5116023;28;20119;-64
2023/02/23 08:47:41;;;;;;;9.73;4.20;;;;;;;15.81;48.45;100398.84;5116153;28;20048;-65
2023/02/23 08:50:11;;;;;;;7.82;4.15;;;;;;;15.77;48.47;100398.25;5115808;28;20044;-63
2023/02/23 08:52:41;;;;;;;6.38;3.72;;;;;;;15.82;48.33;100403.25;5115749;28;20059;-64
2023/02/23 08:55:12;;;;;;;6.85;3.85;;;;;;;15.81;48.43;100399.69;5115569;28;20100;-65
2023/02/23 08:57:41;;;;;;;7.55;4.38;;;;;;;15.81;48.49;100399.69;5115635;28;20044;-65
2023/02/23 09:00:13;;;;;;;7.25;3.67;;;;;;;15.80;48.62;100398.00;5115549;28;20183;-64
2023/02/23 09:02:42;;;;;;;;;;;;;;;15.81;48.48;100405.09;5116104;28;20058;-64
2023/02/23 09:05:11;;;;;;;7.10;3.78;;;;;;;15.82;48.47;100406.78;5115472;28;19923;-65
2023/02/23 09:07:43;;;;;;;7.22;3.75;;;;;;;15.82;48.46;100401.41;5115488;28;20047;-64
2023/02/23 09:10:14;;;;;;;6.30;3.80;;;;;;;15.83;48.20;100405.00;5115371;28;20050;-65
2023/02/23 09:12:42;;;;;;;6.55;4.00;;;;;;;15.82;48.43;100409.47;5115567;28;20407;-65
2023/02/23 09:15:12;;;;;;;7.05;3.70;;;;;;;15.82;48.29;100406.78;5115227;28;20131;-64
2023/02/23 09:17:43;;;;;;;8.02;4.10;;;;;;;15.84;48.41;100404.84;5115187;28;20484;-64
2023/02/23 09:20:14;;;;;;;8.57;4.20;;;;;;;15.82;47.94;100406.78;5115080;28;20068;-65
2023/02/23 09:22:47;;;;;;;6.05;3.67;;;;;;;15.84;48.31;100404.00;5114942;28;20481;-64
2023/02/23 09:25:17;;;;;;;7.38;3.50;;;;;;;15.83;48.25;100403.16;5115003;28;20054;-65
2023/02/23 09:27:46;;;;;;;6.18;3.80;;;;;;;15.85;48.32;100405.72;5114865;28;20059;-65
2023/02/23 09:30:16;;;;;;;6.80;3.88;;;;;;;15.86;48.54;100402.03;5114819;28;20047;-65
2023/02/23 09:32:45;;;;;;;7.68;3.80;;;;;;;15.85;48.32;100403.88;5114514;28;20081;-64
2023/02/23 09:35:16;;;;;;;6.50;3.72;;;;;;;15.83;48.27;100400.47;5114539;28;20130;-63
2023/02/23 09:37:47;;;;;;;6.95;3.75;;;;;;;15.87;48.34;100406.44;5114722;28;20389;-65
2023/02/23 09:40:19;;;;;;;6.82;3.55;;;;;;;15.87;48.35;100407.28;5114920;28;20040;-64
2023/02/23 09:42:57;;;;;;;7.15;3.58;;;;;;;15.85;48.37;100405.72;5114834;28;20118;-64
2023/02/23 09:45:33;;;;;;;6.28;3.75;;;;;;;15.86;48.28;100408.28;5114664;28;20047;-65
2023/02/23 09:48:11;;;;;;;7.05;3.90;;;;;;;15.88;48.34;100411.69;5114752;28;20453;-65
2023/02/23 09:50:43;;;;;;;6.90;3.88;;;;;;;15.90;48.16;100411.56;5114599;28;20498;-64
2023/02/23 09:53:35;;;;;;;6.70;4.07;;;;;;;15.89;48.19;100416.09;5115018;28;20050;-65
2023/02/23 09:56:10;;;;;;;6.43;3.80;;;;;;;15.88;48.16;100409.00;5114498;28;20043;-65
2023/02/23 09:58:40;;;;;;;7.15;3.55;;;;;;;15.91;48.10;100413.28;5114484;28;20054;-64
2023/02/23 10:01:22;;;;;;;8.13;4.20;;;;;;;15.90;48.10;100409.72;5114382;28;20050;-65
2023/02/23 10:03:57;;;;;;;6.95;3.78;;;;;;;15.90;47.98;100409.72;5114546;28;20563;-65
2023/02/23 10:06:25;;;;;;;6.35;3.60;;;;;;;15.87;47.98;100398.38;5114259;28;20069;-65
2023/02/23 10:09:06;;;;;;;7.07;3.78;;;;;;;15.91;47.82;100411.44;5114362;28;20047;-64
2023/02/23 10:11:40;;;;;;;7.70;3.83;;;;;;;15.93;48.05;100409.50;5114235;28;20123;-64
2023/02/23 10:14:23;;;;;;;6.88;3.67;;;;;;;15.91;47.81;100411.44;5114189;28;20100;-65
2023/02/23 10:17:06;;;;;;;7.40;3.95;;;;;;;15.94;48.01;100413.91;5114380;28;20043;-65
2023/02/23 10:19:43;;;;;;;8.82;4.05;;;;;;;15.94;47.83;100410.38;5114085;28;20043;-66
2023/02/23 10:22:14;;;;;;;7.13;3.63;;;;;;;15.95;47.70;100410.22;5114100;28;20070;-65
2023/02/23 10:24:50;;;;;;;7.60;4.03;;;;;;;15.96;47.83;100411.09;5113940;28;20055;-64
2023/02/23 10:27:20;;;;;;;6.93;3.63;;;;;;;15.96;47.77;100405.72;5113915;28;20047;-64
2023/02/23 10:29:51;;;;;;;6.60;3.67;;;;;;;15.94;47.79;100400.47;5113913;28;20492;-64
2023/02/23 10:32:26;;;;;;;7.22;3.33;;;;;;;15.96;47.64;100409.25;5113822;28;20126;-64
2023/02/23 10:34:56;;;;;;;7.10;3.45;;;;;;;15.96;47.55;100403.00;5113676;28;20043;-65
2023/02/23 10:37:25;;;;;;;8.65;4.03;;;;;;;15.97;47.58;100402.88;5113819;28;20480;-64
2023/02/23 10:39:55;;;;;;;7.70;3.60;;;;;;;15.99;47.47;100402.75;5113682;28;20103;-64
2023/02/23 10:42:27;;;;;;;6.82;3.53;;;;;;;15.98;47.69;100395.66;5113512;28;20047;-65
2023/02/23 10:44:56;;;;;;;7.50;4.05;;;;;;;16.00;47.75;100399.09;5113595;28;20047;-64
2023/02/23 10:47:28;;;;;;;6.45;3.38;;;;;;;16.00;47.67;100389.19;5113621;28;20460;-65
2023/02/23 10:49:57;;;;;;;6.93;3.88;;;;;;;16.01;47.52;100390.88;5113578;28;20100;-64
2023/02/23 10:52:31;;;;;;;6.95;3.80;;;;;;;16.00;47.63;100383.78;5113269;28;20055;-65
2023/02/23 10:55:05;;;;;;;7.80;3.90;;;;;;;16.01;47.71;100382.81;5113097;28;20370;-65
2023/02/23 10:57:36;;;;;;;6.40;3.72;;;;;;;16.03;47.51;100378.19;5113076;28;20043;-65
2023/02/23 11:00:29;;;;;;;6.03;3.70;;;;;;;16.03;47.41;100372.81;5113342;28;20073;-66
2023/02/23 11:02:58;;;;;;;6.25;3.88;;;;;;;16.02;47.52;100371.09;5113252;28;20139;-64
2023/02/23 11:05:45;;;;;;;6.47;4.00;;;;;;;16.05;47.65;100369.13;5113148;28;20469;-64
2023/02/23 11:08:28;;;;;;;7.43;3.95;;;;;;;16.05;47.55;100366.44;5113238;28;20039;-64
2023/02/23 11:11:07;;;;;;;6.33;3.87;;;;;;;16.05;47.41;100358.38;5113247;28;20424;-64
2023/02/23 11:13:39;;;;;;;6.65;3.78;;;;;;;16.06;47.59;100355.56;5113021;28;20052;-65
2023/02/23 11:16:11;;;;;;;7.00;3.90;;;;;;;16.04;47.48;100349.44;5113109;28;20058;-63
2023/02/23 11:18:42;;;;;;;6.85;3.55;;;;;;;16.07;47.70;100359.97;5112944;28;20055;-64
2023/02/23 11:21:21;;;;;;;6.40;3.75;;;;;;;16.10;47.68;100356.16;5112719;28;20086;-64
2023/02/23 11:23:52;;;;;;;6.88;3.80;;;;;;;16.10;47.83;100354.31;5112933;28;20122;-64
2023/02/23 11:26:31;;;;;;;6.18;3.88;;;;;;;16.10;47.57;100354.31;5112767;28;20073;-65
2023/02/23 11:29:04;;;;;;;6.55;3.70;;;;;;;16.09;47.55;100357.13;5112700;28;20055;-64
2023/02/23 11:31:34;;;;;;;7.75;3.95;;;;;;;16.12;47.63;100354.22;5112738;28;20063;-64
2023/02/23 11:34:05;;;;;;;6.22;3.60;;;;;;;16.12;47.52;100348.84;5112450;28;20098;-64
2023/02/23 11:36:36;;;;;;;6.55;3.60;;;;;;;16.11;47.46;100341.72;5112324;28;20500;-64
2023/02/23 11:39:21;;;;;;;6.03;3.58;;;;;;;16.12;47.49;100348.84;5112679;28;20047;-64
2023/02/23 11:42:13;;;;;;;7.05;4.05;;;;;;;16.14;47.45;100346.88;5112673;28;20524;-65
2023/02/23 11:44:42;;;;;;;7.22;3.72;;;;;;;16.12;47.32;100340.75;5112373;28;20056;-66
2023/02/23 11:47:19;;;;;;;7.32;3.90;;;;;;;16.13;47.47;100343.31;5112654;28;20855;-66
2023/02/23 11:49:49;;;;;;;7.07;3.60;;;;;;;16.15;47.52;100344.03;5113000;28;20516;-64
2023/02/23 11:52:21;;;;;;;7.22;3.70;;;;;;;16.16;47.52;100339.50;5112321;28;20434;-65
2023/02/23 11:54:56;;;;;;;6.13;3.70;;;;;;;16.15;47.38;100332.44;5112304;28;20043;-66
2023/02/23 11:57:29;;;;;;;6.80;4.10;;;;;;;16.14;47.24;100330.72;5112239;28;20449;-64
2023/02/23 12:00:00;;;;;;;7.22;4.25;;;;;;;16.16;47.44;100331.44;5112612;28;20075;-64
2023/02/23 12:02:30;;;;;;;8.80;4.20;;;;;;;16.18;47.27;100329.47;5112387;28;20039;-65
2023/02/23 12:05:07;;;;;;;7.20;3.78;;;;;;;16.17;47.20;100330.47;5111576;28;20048;-64
2023/02/23 12:07:40;;;;;;;6.78;3.90;;;;;;;16.18;47.09;100327.63;5112040;28;20047;-64
2023/02/23 12:10:19;;;;;;;6.85;3.83;;;;;;;16.18;47.29;100324.94;5111897;28;20047;-65
2023/02/23 12:12:57;;;;;;;7.53;4.22;;;;;;;16.19;47.24;100328.50;5111941;28;20043;-65
2023/02/23 12:15:36;;;;;;;6.18;3.42;;;;;;;16.17;47.10;100319.69;5112101;28;20055;-64
2023/02/23 12:18:11;;;;;;;7.43;3.92;;;;;;;16.15;46.97;100317.13;5112154;28;20147;-64
2023/02/23 12:20:43;;;;;;;9.07;4.18;;;;;;;16.20;47.04;100322.13;5112276;28;20043;-65
2023/02/23 12:23:15;;;;;;;8.60;3.97;;;;;;;16.17;47.00;100308.94;5112426;28;20050;-64
2023/02/23 12:25:48;;;;;;;8.55;4.70;;;;;;;16.20;47.03;100314.06;5112218;28;20039;-65
2023/02/23 12:28:20;;;;;;;;;;;;;;;16.20;46.84;100311.34;5112598;28;20048;-65
2023/02/23 12:30:51;;;;;;;7.32;3.80;;;;;;;16.20;47.13;100303.28;5111767;28;19947;-65
2023/02/23 12:33:28;;;;;;;8.82;4.15;;;;;;;16.21;46.89;100307.69;5112062;28;20086;-64
2023/02/23 12:36:00;;;;;;;6.35;3.88;;;;;;;16.20;46.97;100300.59;5111874;28;20079;-65
2023/02/23 12:38:40;;;;;;;6.80;3.95;;;;;;;16.20;47.06;100301.44;5111790;28;20079;-65
2023/02/23 12:41:13;;;;;;;7.75;3.83;;;;;;;16.22;47.28;100304.03;5111815;28;20055;-64
2023/02/23 12:43:50;;;;;;;8.20;4.15;;;;;;;16.21;47.06;100299.59;5112004;28;20055;-66
2023/02/23 12:46:24;;;;;;;6.32;3.75;;;;;;;16.22;47.13;100293.28;5111935;28;20044;-63
2023/02/23 12:49:01;;;;;;;5.65;3.50;;;;;;;16.22;47.29;100290.59;5111753;28;20043;-65
2023/02/23 12:51:33;;;;;;;7.28;4.22;;;;;;;16.21;47.44;100288.84;5111486;28;20404;-64
2023/02/23 12:54:02;;;;;;;7.28;3.78;;;;;;;16.20;47.05;100285.31;5111377;28;20050;-65
2023/02/23 12:56:55;;;;;;;6.57;3.72;;;;;;;16.23;47.18;100284.22;5111415;28;20481;-65
2023/02/23 12:59:50;;;;;;;6.88;3.60;;;;;;;16.23;46.95;100282.38;5111498;28;20164;-64
2023/02/23 13:02:24;;;;;;;7.03;3.78;;;;;;;16.24;47.12;100277.84;5111587;28;20050;-64
2023/02/23 13:05:07;;;;;;;6.85;3.63;;;;;;;16.22;47.07;100274.44;5111763;28;20043;-64
2023/02/23 13:07:43;;;;;;;6.70;3.80;;;;;;;16.24;47.03;100277.84;5111597;28;20476;-64
2023/02/23 13:10:22;;;;;;;7.55;4.10;;;;;;;16.22;47.05;100279.81;5112203;28;20092;-64
2023/02/23 13:13:00;;;;;;;8.32;3.83;;;;;;;16.26;47.34;100275.88;5111605;28;20455;-64